createdAt,value
2022-11-21T00:02:49.628Z,31.10
2022-11-21T00:07:53.539Z,32.20
2022-11-21T00:12:56.589Z,34.25
2022-11-21T00:17:59.182Z,35.17
2022-11-21T00:23:03.050Z,34.65
2022-11-21T00:28:06.609Z,36.30
2022-11-21T00:33:09.206Z,35.55
2022-11-21T00:38:13.087Z,35.23
2022-11-21T00:43:15.655Z,35.25
2022-11-21T00:48:18.240Z,35.80
2022-11-21T00:53:22.144Z,36.92
2022-11-21T00:58:24.713Z,35.63
2022-11-21T01:03:29.001Z,37.03
2022-11-21T01:08:33.129Z,36.40
2022-11-21T01:13:36.339Z,34.73
2022-11-21T01:18:39.179Z,33.15
2022-11-21T01:23:43.209Z,33.08
2022-11-21T01:28:46.977Z,35.00
2022-11-21T01:33:50.480Z,34.38
2022-11-21T01:38:56.249Z,34.50
2022-11-21T01:43:59.046Z,36.25
2022-11-21T01:49:05.696Z,34.95
2022-11-21T01:54:14.172Z,35.60
2022-11-21T01:59:21.567Z,35.93
2022-11-21T02:04:29.728Z,36.72
2022-11-21T02:09:36.999Z,39.83
2022-11-21T02:14:43.190Z,37.90
2022-11-21T02:19:53.218Z,38.25
2022-11-21T02:25:03.914Z,37.10
2022-11-21T02:30:09.192Z,38.05
2022-11-21T02:35:11.704Z,39.00
2022-11-21T02:40:19.721Z,38.17
2022-11-21T02:45:27.798Z,39.60
2022-11-21T02:50:32.866Z,39.42
2022-11-21T02:55:38.035Z,38.45
2022-11-21T03:00:42.597Z,38.35
2022-11-21T03:05:45.387Z,35.95
2022-11-21T03:10:49.817Z,33.50
2022-11-21T03:15:52.594Z,32.70
2022-11-21T03:20:55.180Z,30.98
2022-11-21T03:25:59.819Z,31.58
2022-11-21T03:31:02.488Z,32.85
2022-11-21T03:36:05.761Z,32.20
2022-11-21T03:41:29.194Z,32.50
2022-11-21T03:46:33.608Z,34.57
2022-11-21T03:51:37.178Z,33.38
2022-11-21T03:56:41.063Z,32.90
2022-11-21T04:01:43.663Z,31.60
2022-11-21T04:06:46.259Z,29.10
2022-11-21T04:11:50.150Z,30.27
2022-11-21T04:16:53.091Z,25.30
2022-11-21T04:21:55.600Z,26.17
2022-11-21T04:26:59.482Z,27.92
2022-11-21T04:32:02.003Z,25.90
2022-11-21T04:37:10.191Z,22.38
2022-11-21T04:42:15.393Z,23.50
2022-11-21T04:47:17.952Z,24.90
2022-11-21T04:52:20.479Z,24.15
2022-11-21T04:57:24.711Z,26.63
2022-11-21T05:02:27.474Z,26.67
2022-11-21T05:07:30.186Z,28.00
2022-11-21T05:12:52.080Z,29.20
2022-11-21T05:17:54.623Z,58.25
2022-11-21T05:22:57.183Z,30.63
2022-11-21T05:28:01.103Z,28.23
2022-11-21T05:33:03.731Z,28.40
2022-11-21T05:38:06.238Z,29.85
2022-11-21T05:43:28.875Z,29.38
2022-11-21T05:48:31.409Z,30.40
2022-11-21T05:53:34.785Z,30.63
2022-11-21T05:58:39.134Z,29.73
2022-11-21T06:03:43.138Z,30.73
2022-11-21T06:08:47.354Z,30.87
2022-11-21T06:13:51.329Z,33.30
2022-11-21T06:18:58.348Z,91.55
2022-11-21T06:24:01.221Z,32.20
2022-11-21T06:29:05.063Z,31.85
2022-11-21T06:34:07.612Z,34.50
2022-11-21T06:39:10.249Z,31.53
2022-11-21T06:44:14.346Z,32.70
2022-11-21T06:49:19.050Z,36.28
2022-11-21T06:54:21.575Z,38.60
2022-11-21T06:59:25.480Z,39.38
2022-11-21T07:04:28.948Z,37.50
2022-11-21T07:09:34.296Z,33.60
2022-11-21T07:14:38.580Z,33.70
2022-11-21T07:19:41.533Z,30.60
2022-11-21T07:24:44.144Z,30.25
2022-11-21T07:29:48.044Z,28.03
2022-11-21T07:34:50.851Z,27.93
2022-11-21T07:39:53.376Z,27.80
2022-11-21T07:44:57.304Z,121.97
2022-11-21T07:50:00.243Z,40.47
2022-11-21T07:55:03.627Z,29.65
2022-11-21T08:00:09.298Z,29.70
2022-11-21T08:05:11.822Z,30.45
2022-11-21T08:10:14.515Z,31.25
2022-11-21T08:15:18.492Z,32.15
2022-11-21T08:20:21.112Z,34.30
2022-11-21T08:25:23.735Z,86.85
2022-11-21T08:30:27.871Z,35.70
2022-11-21T08:35:31.062Z,35.92
2022-11-21T08:40:34.320Z,41.05
2022-11-21T08:45:39.465Z,40.30
2022-11-21T08:50:41.991Z,39.70
2022-11-21T08:55:44.517Z,39.22
2022-11-21T09:00:48.816Z,39.72
2022-11-21T09:05:51.453Z,39.03
2022-11-21T09:10:54.105Z,39.70
2022-11-21T09:16:20.246Z,37.95
2022-11-21T09:21:23.385Z,38.88
2022-11-21T09:26:25.971Z,36.13
2022-11-21T09:31:29.921Z,35.50
2022-11-21T09:36:32.610Z,32.17
2022-11-21T09:41:52.894Z,34.00
2022-11-21T09:47:05.278Z,29.50
2022-11-21T09:52:09.976Z,26.60
2022-11-21T09:57:19.118Z,28.00
2022-11-21T10:02:25.097Z,25.00
2022-11-21T10:07:31.285Z,24.60
2022-11-21T10:12:41.999Z,20.53
2022-11-21T10:18:03.746Z,19.23
2022-11-21T10:23:23.667Z,19.20
2022-11-21T10:28:39.720Z,19.00
2022-11-21T10:33:44.027Z,19.80
2022-11-21T10:38:46.739Z,19.70
2022-11-21T10:44:17.587Z,81.57
2022-11-21T10:49:21.534Z,22.02
2022-11-21T10:54:36.406Z,15.68
2022-11-21T10:59:38.982Z,13.20
2022-11-21T11:04:49.191Z,13.30
2022-11-21T11:10:15.891Z,14.70
2022-11-21T11:15:21.203Z,10.93
2022-11-21T11:20:35.167Z,10.05
2022-11-21T11:25:37.833Z,9.88
2022-11-21T11:30:41.248Z,9.30
2022-11-21T11:35:45.382Z,9.02
2022-11-21T11:40:47.909Z,9.40
2022-11-21T11:46:28.059Z,7.70
2022-11-21T11:51:38.197Z,7.70
2022-11-21T11:56:43.495Z,7.27
2022-11-21T12:01:52.689Z,7.03
2022-11-21T12:12:33.336Z,6.30
2022-11-21T12:17:42.950Z,5.95
2022-11-21T12:22:50.515Z,6.70
2022-11-21T12:27:56.247Z,6.75
2022-11-21T12:33:09.008Z,6.40
2022-11-21T12:38:28.732Z,22.42
2022-11-21T12:43:40.849Z,7.78
2022-11-21T12:49:16.222Z,5.38
2022-11-21T12:55:01.398Z,5.30
2022-11-21T13:00:15.790Z,5.70
2022-11-21T13:05:27.615Z,5.43
2022-11-21T13:10:31.055Z,5.47
2022-11-21T13:15:44.781Z,4.60
2022-11-21T13:20:49.895Z,3.53
2022-11-21T13:25:53.321Z,17.40
2022-11-21T13:30:58.053Z,5.20
2022-11-21T13:36:00.733Z,2.88
2022-11-21T13:41:20.975Z,23.23
2022-11-21T13:47:02.546Z,4.68
2022-11-21T13:52:09.175Z,4.47
2022-11-21T13:57:30.522Z,4.28
2022-11-21T14:02:54.800Z,5.30
2022-11-21T14:08:14.248Z,5.78
2022-11-21T14:13:27.871Z,5.40
2022-11-21T14:18:33.491Z,4.82
2022-11-21T14:23:37.336Z,5.32
2022-11-21T14:28:40.127Z,5.23
2022-11-21T14:33:45.104Z,5.40
2022-11-21T14:39:07.638Z,5.60
2022-11-21T14:44:19.050Z,12.10
2022-11-21T14:49:30.205Z,7.57
2022-11-21T14:54:50.279Z,5.82
2022-11-21T15:00:06.272Z,4.95
2022-11-21T15:05:29.047Z,5.10
2022-11-21T15:10:39.910Z,31.40
2022-11-21T15:15:47.366Z,13.93
2022-11-21T15:20:54.247Z,6.75
2022-11-21T15:26:00.908Z,4.93
2022-11-21T15:31:20.731Z,5.03
2022-11-21T15:36:24.990Z,5.45
2022-11-21T15:41:31.186Z,4.93
2022-11-21T15:46:37.667Z,16.17
2022-11-21T15:52:06.131Z,4.30
2022-11-21T15:57:05.878Z,4.03
2022-11-21T16:02:13.245Z,9.70
2022-11-21T16:07:17.203Z,19.27
2022-11-21T16:12:19.882Z,4.10
2022-11-21T16:17:22.470Z,4.00
2022-11-21T16:22:26.494Z,3.65
2022-11-21T16:27:29.375Z,2.60
2022-11-21T16:32:32.361Z,3.35
2022-11-21T16:37:36.272Z,2.70
2022-11-21T16:42:38.987Z,3.00
2022-11-21T16:47:47.306Z,3.30
2022-11-21T16:52:52.583Z,3.20
2022-11-21T16:57:57.802Z,3.00
2022-11-21T17:03:01.368Z,19.73
2022-11-21T17:08:05.502Z,4.15
2022-11-21T17:13:08.048Z,2.78
2022-11-21T17:18:10.600Z,3.00
2022-11-21T17:23:14.977Z,2.80
2022-11-21T17:28:17.589Z,3.45
2022-11-21T17:33:21.370Z,33.57
2022-11-21T17:38:25.951Z,4.05
2022-11-21T17:43:28.761Z,2.80
2022-11-21T17:48:33.570Z,4.45
2022-11-21T17:53:39.287Z,4.30
2022-11-21T17:58:42.576Z,4.20
2022-11-21T18:03:45.391Z,6.50
2022-11-21T18:08:50.013Z,4.00
2022-11-21T18:13:54.098Z,3.60
2022-11-21T18:18:56.792Z,3.90
2022-11-21T18:24:00.925Z,3.80
2022-11-21T18:29:35.710Z,3.97
2022-11-21T18:34:28.031Z,3.88
2022-11-21T18:39:32.237Z,3.80
2022-11-21T18:44:35.100Z,10.73
2022-11-21T18:49:37.678Z,4.80
2022-11-21T18:54:41.585Z,3.30
2022-11-21T18:59:44.596Z,3.05
2022-11-21T19:04:47.327Z,4.03
2022-11-21T19:09:51.283Z,3.50
2022-11-21T19:14:55.440Z,3.20
2022-11-21T19:19:57.982Z,22.45
2022-11-21T19:25:02.053Z,3.10
2022-11-21T19:30:05.214Z,2.97
2022-11-21T19:35:09.383Z,16.30
2022-11-21T19:40:14.765Z,5.90
2022-11-21T19:45:17.381Z,8.20
2022-11-21T19:50:19.942Z,3.60
2022-11-21T19:55:23.879Z,4.38
2022-11-21T20:00:26.527Z,4.05
2022-11-21T20:05:29.034Z,4.50
2022-11-21T20:10:33.911Z,3.58
2022-11-21T20:15:38.734Z,4.90
2022-11-21T20:20:41.330Z,5.13
2022-11-21T20:25:49.328Z,8.75
2022-11-21T20:30:51.863Z,12.55
2022-11-21T20:35:55.764Z,4.90
2022-11-21T20:40:59.678Z,3.50
2022-11-21T20:46:10.008Z,7.07
2022-11-21T20:56:42.564Z,3.65
2022-11-21T21:01:46.913Z,7.43
2022-11-21T21:06:49.558Z,8.45
2022-11-21T21:11:53.771Z,4.30
2022-11-21T21:16:56.396Z,5.95
2022-11-21T21:21:58.981Z,5.82
2022-11-21T21:27:02.902Z,5.77
2022-11-21T21:32:06.292Z,5.57
2022-11-21T21:37:08.974Z,4.95
2022-11-21T21:42:12.974Z,4.00
2022-11-21T21:47:17.139Z,8.98
2022-11-21T21:52:19.801Z,4.40
2022-11-21T21:57:23.685Z,14.50
2022-11-21T22:02:26.258Z,4.77
2022-11-21T22:07:28.875Z,3.83
2022-11-21T22:12:33.169Z,3.80
2022-11-21T22:17:35.777Z,3.40
2022-11-21T22:22:38.339Z,3.35
2022-11-21T22:27:42.550Z,3.58
2022-11-21T22:32:45.130Z,3.60
2022-11-21T22:37:50.305Z,4.00
2022-11-21T22:42:54.283Z,3.80
2022-11-21T22:47:56.808Z,3.80
2022-11-21T22:52:59.355Z,3.72
2022-11-21T22:58:03.339Z,3.50
2022-11-21T23:03:05.905Z,3.50
2022-11-21T23:08:08.429Z,3.25
2022-11-21T23:13:12.296Z,3.03
2022-11-21T23:18:15.313Z,3.20
2022-11-21T23:23:17.964Z,3.50
2022-11-21T23:28:22.272Z,3.80
2022-11-21T23:33:24.922Z,3.70
2022-11-21T23:38:27.616Z,3.70
2022-11-21T23:43:31.941Z,4.57
2022-11-21T23:48:34.476Z,4.20
2022-11-21T23:53:36.992Z,3.83
2022-11-21T23:58:40.907Z,3.70
